createdAt,value
2023-01-28T00:00:56.758Z,102476.31
2023-01-28T00:03:23.670Z,102469.28
2023-01-28T00:05:52.131Z,102474.63
2023-01-28T00:08:18.758Z,102484.44
2023-01-28T00:10:45.413Z,102486.28
2023-01-28T00:13:13.219Z,102487.19
2023-01-28T00:15:39.855Z,102485.50
2023-01-28T00:18:06.532Z,102487.41
2023-01-28T00:20:33.147Z,102490.13
2023-01-28T00:23:01.266Z,102492.91
2023-01-28T00:25:28.106Z,102492.09
2023-01-28T00:27:54.708Z,102492.16
2023-01-28T00:30:21.288Z,102486.94
2023-01-28T00:32:47.964Z,102488.75
2023-01-28T00:35:14.979Z,102483.44
2023-01-28T00:37:41.737Z,102488.84
2023-01-28T00:40:11.669Z,102485.28
2023-01-28T00:42:38.253Z,102488.00
2023-01-28T00:45:05.558Z,102485.41
2023-01-28T00:47:32.247Z,102484.53
2023-01-28T00:49:58.939Z,102488.91
2023-01-28T00:52:25.523Z,102482.66
2023-01-28T00:54:52.103Z,102490.63
2023-01-28T00:57:20.158Z,102489.63
2023-01-28T00:59:46.812Z,102489.59
2023-01-28T01:02:13.531Z,102495.81
2023-01-28T01:04:40.534Z,102490.50
2023-01-28T01:07:07.431Z,102494.00
2023-01-28T01:09:34.063Z,102493.03
2023-01-28T01:12:00.958Z,102488.59
2023-01-28T01:14:28.962Z,102486.75
2023-01-28T01:16:55.579Z,102491.16
2023-01-28T01:19:22.209Z,102495.56
2023-01-28T01:21:48.845Z,102489.31
2023-01-28T01:24:15.555Z,102492.84
2023-01-28T01:26:42.243Z,102487.47
2023-01-28T01:29:08.968Z,102496.31
2023-01-28T01:31:37.064Z,102488.31
2023-01-28T01:34:03.708Z,102494.44
2023-01-28T01:36:31.313Z,102489.94
2023-01-28T01:38:57.952Z,102495.25
2023-01-28T01:41:27.548Z,102502.28
2023-01-28T01:43:57.122Z,102500.47
2023-01-28T01:46:32.034Z,102502.13
2023-01-28T01:49:06.719Z,102498.56
2023-01-28T01:51:35.006Z,102502.06
2023-01-28T01:54:03.013Z,102498.47
2023-01-28T01:56:34.559Z,102501.09
2023-01-28T01:59:02.632Z,102502.72
2023-01-28T02:01:31.424Z,102498.28
2023-01-28T02:04:04.556Z,102500.91
2023-01-28T02:06:32.131Z,102503.50
2023-01-28T02:08:58.795Z,102516.78
2023-01-28T02:11:28.678Z,102512.22
2023-01-28T02:13:58.616Z,102506.84
2023-01-28T02:16:26.628Z,102508.53
2023-01-28T02:18:53.293Z,102505.88
2023-01-28T02:21:56.191Z,102502.28
2023-01-28T02:25:02.388Z,102511.91
2023-01-28T02:27:36.599Z,102497.56
2023-01-28T02:30:10.862Z,102503.75
2023-01-28T02:32:43.633Z,102509.88
2023-01-28T02:35:15.858Z,102500.97
2023-01-28T02:37:47.750Z,102504.47
2023-01-28T02:40:20.656Z,102510.59
2023-01-28T02:42:47.928Z,102511.47
2023-01-28T02:45:25.754Z,102511.50
2023-01-28T02:47:53.239Z,102511.47
2023-01-28T02:50:21.230Z,102510.56
2023-01-28T02:52:59.401Z,102506.09
2023-01-28T02:55:32.530Z,102503.44
2023-01-28T02:58:09.970Z,102505.16
2023-01-28T03:00:47.254Z,102506.91
2023-01-28T03:03:21.985Z,102505.13
2023-01-28T03:05:53.382Z,102510.56
2023-01-28T03:08:20.066Z,102507.81
2023-01-28T03:10:47.065Z,102514.91
2023-01-28T03:13:13.724Z,102516.66
2023-01-28T03:15:45.781Z,102506.91
2023-01-28T03:18:18.033Z,102506.00
2023-01-28T03:20:57.287Z,102504.19
2023-01-28T03:23:31.053Z,102501.47
2023-01-28T03:26:01.406Z,102506.88
2023-01-28T03:28:29.302Z,102509.53
2023-01-28T03:31:02.930Z,102504.25
2023-01-28T03:33:31.926Z,102511.31
2023-01-28T03:35:58.528Z,102510.41
2023-01-28T03:38:25.260Z,102509.47
2023-01-28T03:40:57.793Z,102510.41
2023-01-28T03:43:24.741Z,102506.88
2023-01-28T03:45:51.572Z,102515.78
2023-01-28T03:48:20.457Z,102505.13
2023-01-28T03:50:47.439Z,102507.75
2023-01-28T03:53:16.511Z,102508.63
2023-01-28T03:55:44.584Z,102505.06
2023-01-28T03:58:12.416Z,102504.13
2023-01-28T04:00:40.075Z,102511.22
2023-01-28T04:03:06.659Z,102505.84
2023-01-28T04:05:34.666Z,102510.25
2023-01-28T04:08:01.363Z,102511.97
2023-01-28T04:10:27.964Z,102518.13
2023-01-28T04:12:54.625Z,102502.94
2023-01-28T04:15:21.261Z,102502.88
2023-01-28T04:17:48.469Z,102497.47
2023-01-28T04:20:15.960Z,102504.63
2023-01-28T04:22:43.986Z,102508.25
2023-01-28T04:25:10.657Z,102500.25
2023-01-28T04:27:37.263Z,102507.31
2023-01-28T04:30:04.848Z,102513.47
2023-01-28T04:32:31.953Z,102513.38
2023-01-28T04:34:58.590Z,102514.19
2023-01-28T04:37:25.233Z,102509.72
2023-01-28T04:39:53.213Z,102502.56
2023-01-28T04:42:19.887Z,102507.88
2023-01-28T04:44:46.485Z,102511.47
2023-01-28T04:47:13.104Z,102501.69
2023-01-28T04:49:39.729Z,102501.72
2023-01-28T04:52:06.332Z,102499.94
2023-01-28T04:54:32.979Z,102502.56
2023-01-28T04:57:01.088Z,102494.47
2023-01-28T04:59:27.732Z,102495.34
2023-01-28T05:01:54.451Z,102502.41
2023-01-28T05:04:21.148Z,102511.19
2023-01-28T05:06:47.738Z,102517.44
2023-01-28T05:09:14.391Z,102520.13
2023-01-28T05:11:41.077Z,102519.19
2023-01-28T05:14:09.366Z,102524.53
2023-01-28T05:16:36.090Z,102521.00
2023-01-28T05:19:03.075Z,102523.66
2023-01-28T05:21:29.739Z,102525.41
2023-01-28T05:23:56.387Z,102531.63
2023-01-28T05:26:23.061Z,102532.53
2023-01-28T05:28:49.752Z,102536.97
2023-01-28T05:31:17.739Z,102527.19
2023-01-28T05:33:44.430Z,102537.91
2023-01-28T05:36:11.259Z,102530.78
2023-01-28T05:38:37.883Z,102529.88
2023-01-28T05:41:04.984Z,102528.94
2023-01-28T05:43:31.561Z,102533.38
2023-01-28T05:45:58.253Z,102535.06
2023-01-28T05:48:26.382Z,102529.75
2023-01-28T05:50:53.035Z,102530.59
2023-01-28T05:53:19.916Z,102532.34
2023-01-28T05:55:48.730Z,102533.13
2023-01-28T05:58:15.474Z,102529.59
2023-01-28T06:00:42.197Z,102522.47
2023-01-28T06:03:08.930Z,102523.34
2023-01-28T06:05:36.945Z,102518.00
2023-01-28T06:08:04.098Z,102526.09
2023-01-28T06:10:31.134Z,102523.41
2023-01-28T06:12:57.992Z,102528.75
2023-01-28T06:15:24.738Z,102536.75
2023-01-28T06:17:51.357Z,102538.53
2023-01-28T06:20:18.179Z,102538.59
2023-01-28T06:22:46.138Z,102534.09
2023-01-28T06:25:12.773Z,102532.22
2023-01-28T06:27:40.435Z,102544.50
2023-01-28T06:30:08.309Z,102537.34
2023-01-28T06:32:34.912Z,102548.91
2023-01-28T06:35:01.552Z,102542.56
2023-01-28T06:37:28.134Z,102541.66
2023-01-28T06:39:56.317Z,102552.25
2023-01-28T06:42:23.061Z,102551.38
2023-01-28T06:44:49.798Z,102545.19
2023-01-28T06:47:16.387Z,102547.94
2023-01-28T06:49:43.207Z,102556.03
2023-01-28T06:52:09.829Z,102548.81
2023-01-28T06:54:36.546Z,102549.69
2023-01-28T06:57:04.518Z,102555.03
2023-01-28T06:59:31.110Z,102559.38
2023-01-28T07:01:57.764Z,102566.53
2023-01-28T07:04:24.433Z,102561.25
2023-01-28T07:06:51.189Z,102560.38
2023-01-28T07:09:17.875Z,102561.25
2023-01-28T07:11:44.526Z,102557.66
2023-01-28T07:14:12.457Z,102548.69
2023-01-28T07:16:39.075Z,102553.94
2023-01-28T07:19:05.999Z,102555.69
2023-01-28T07:21:32.652Z,102551.22
2023-01-28T07:23:59.323Z,102552.09
2023-01-28T07:26:26.190Z,102552.03
2023-01-28T07:28:53.011Z,102552.00
2023-01-28T07:31:21.090Z,102559.06
2023-01-28T07:33:47.821Z,102550.13
2023-01-28T07:36:14.451Z,102547.47
2023-01-28T07:38:41.055Z,102557.25
2023-01-28T07:41:07.736Z,102550.13
2023-01-28T07:43:34.270Z,102553.63
2023-01-28T07:46:00.945Z,102547.31
2023-01-28T07:48:28.945Z,102550.81
2023-01-28T07:50:58.913Z,102549.81
2023-01-28T07:53:25.940Z,102554.19
2023-01-28T07:55:52.841Z,102546.13
2023-01-28T07:58:19.414Z,102546.00
2023-01-28T08:00:46.034Z,102564.75
2023-01-28T08:03:13.872Z,102564.91
2023-01-28T08:05:45.558Z,102558.75
2023-01-28T08:08:12.472Z,102567.56
2023-01-28T08:10:39.536Z,102577.25
2023-01-28T08:13:07.305Z,102573.63
2023-01-28T08:15:35.191Z,102576.19
2023-01-28T08:18:03.756Z,102577.81
2023-01-28T08:20:30.905Z,102590.13
2023-01-28T08:23:07.321Z,102579.31
2023-01-28T08:25:34.602Z,102591.66
2023-01-28T08:28:01.302Z,102595.97
2023-01-28T08:30:28.014Z,102586.09
2023-01-28T08:32:56.373Z,102590.38
2023-01-28T08:35:23.013Z,102594.81
2023-01-28T08:37:49.645Z,102596.47
2023-01-28T08:40:18.136Z,102591.03
2023-01-28T08:42:47.496Z,102583.78
2023-01-28T08:45:14.387Z,102588.97
2023-01-28T08:47:48.068Z,102593.25
2023-01-28T08:50:15.263Z,102594.00
2023-01-28T08:52:42.048Z,102590.34
2023-01-28T08:55:09.139Z,102592.03
2023-01-28T08:57:37.258Z,102596.34
2023-01-28T09:00:05.081Z,102599.84
2023-01-28T09:02:32.451Z,102613.06
2023-01-28T09:04:59.311Z,102607.59
2023-01-28T09:07:25.906Z,102605.63
2023-01-28T09:09:52.592Z,102614.34
2023-01-28T09:12:19.215Z,102617.81
2023-01-28T09:14:47.333Z,102619.44
2023-01-28T09:17:13.904Z,102618.41
2023-01-28T09:19:40.630Z,102622.81
2023-01-28T09:22:07.620Z,102629.88
2023-01-28T09:24:34.296Z,102629.78
2023-01-28T09:27:01.026Z,102625.31
2023-01-28T09:29:27.712Z,102637.72
2023-01-28T09:31:55.893Z,102641.13
2023-01-28T09:34:22.591Z,102631.19
2023-01-28T09:36:49.194Z,102636.41
2023-01-28T09:39:15.813Z,102639.03
2023-01-28T09:41:52.568Z,102641.56
2023-01-28T09:44:31.563Z,102642.31
2023-01-28T09:47:03.180Z,102636.94
2023-01-28T09:49:35.354Z,102646.69
2023-01-28T09:52:02.327Z,102648.44
2023-01-28T09:54:35.877Z,102647.50
2023-01-28T09:57:06.233Z,102642.97
2023-01-28T09:59:35.105Z,102648.28
2023-01-28T10:02:33.981Z,102641.03
2023-01-28T10:05:14.956Z,102646.25
2023-01-28T10:07:49.492Z,102645.22
2023-01-28T10:10:19.713Z,102647.78
2023-01-28T10:13:01.368Z,102637.88
2023-01-28T10:15:49.513Z,102636.94
2023-01-28T10:18:30.013Z,102636.81
2023-01-28T10:21:05.889Z,102636.72
2023-01-28T10:23:41.899Z,102627.69
2023-01-28T10:26:21.615Z,102628.50
2023-01-28T10:28:53.632Z,102635.53
2023-01-28T10:31:22.207Z,102636.34
2023-01-28T10:33:50.388Z,102637.19
2023-01-28T10:36:17.805Z,102628.25
2023-01-28T10:38:45.065Z,102634.47
2023-01-28T10:41:17.138Z,102637.97
2023-01-28T10:43:44.130Z,102630.72
2023-01-28T10:46:16.447Z,102617.34
2023-01-28T10:48:46.243Z,102618.19
2023-01-28T10:51:14.380Z,102615.41
2023-01-28T10:53:43.416Z,102618.03
2023-01-28T10:56:14.392Z,102624.28
2023-01-28T10:58:50.882Z,102621.66
2023-01-28T11:01:17.889Z,102617.16
2023-01-28T11:03:55.041Z,102616.38
2023-01-28T11:06:27.305Z,102626.50
2023-01-28T11:08:54.656Z,102627.63
2023-01-28T11:11:26.599Z,102625.88
2023-01-28T11:13:54.467Z,102624.03
2023-01-28T11:16:21.922Z,102613.34
2023-01-28T11:18:51.764Z,102610.59
2023-01-28T11:21:21.481Z,102612.34
2023-01-28T11:23:53.660Z,102611.47
2023-01-28T11:26:23.939Z,102610.53
2023-01-28T11:28:51.907Z,102613.19
2023-01-28T11:31:20.440Z,102614.94
2023-01-28T11:33:50.750Z,102618.56
2023-01-28T11:36:20.333Z,102610.59
2023-01-28T11:38:54.338Z,102599.97
2023-01-28T11:41:28.096Z,102593.78
2023-01-28T11:43:55.219Z,102594.53
2023-01-28T11:46:39.053Z,102590.94
2023-01-28T11:49:13.266Z,102589.03
2023-01-28T11:51:46.706Z,102588.22
2023-01-28T11:54:27.849Z,102591.66
2023-01-28T11:57:10.555Z,102589.91
2023-01-28T11:59:53.447Z,102586.38
2023-01-28T12:02:35.342Z,102584.53
2023-01-28T12:05:29.397Z,102580.03
2023-01-28T12:08:05.092Z,102576.50
2023-01-28T12:10:42.948Z,102573.88
2023-01-28T12:13:37.018Z,102579.31
2023-01-28T12:16:37.709Z,102576.72
2023-01-28T12:19:20.560Z,102581.25
2023-01-28T12:22:12.306Z,102575.13
2023-01-28T12:24:54.573Z,102574.38
2023-01-28T12:27:38.304Z,102577.19
2023-01-28T12:30:15.607Z,102572.78
2023-01-28T12:32:57.264Z,102567.56
2023-01-28T12:35:40.210Z,102568.34
2023-01-28T12:38:15.174Z,102565.69
2023-01-28T12:40:57.420Z,102563.97
2023-01-28T12:43:52.215Z,102558.63
2023-01-28T12:46:29.660Z,102559.44
2023-01-28T12:49:03.109Z,102562.13
2023-01-28T12:51:38.575Z,102559.41
2023-01-28T12:54:16.520Z,102564.69
2023-01-28T12:56:48.929Z,102554.00
2023-01-28T12:59:22.283Z,102547.78
2023-01-28T13:01:52.257Z,102543.34
2023-01-28T13:04:31.402Z,102528.13
2023-01-28T13:07:02.178Z,102523.72
2023-01-28T13:09:31.227Z,102524.50
2023-01-28T13:11:59.926Z,102528.00
2023-01-28T13:14:31.427Z,102522.47
2023-01-28T13:17:09.566Z,102520.66
2023-01-28T13:19:38.830Z,102526.09
2023-01-28T13:22:13.799Z,102520.84
2023-01-28T13:24:40.652Z,102509.22
2023-01-28T13:27:13.569Z,102522.41
2023-01-28T13:29:41.584Z,102513.38
2023-01-28T13:32:30.455Z,102508.81
2023-01-28T13:34:59.349Z,102510.50
2023-01-28T13:37:31.629Z,102502.47
2023-01-28T13:40:04.263Z,102498.97
2023-01-28T13:42:31.666Z,102500.72
2023-01-28T13:45:21.098Z,102498.91
2023-01-28T13:47:51.203Z,102503.19
2023-01-28T13:50:21.373Z,102504.03
2023-01-28T13:52:55.008Z,102497.66
2023-01-28T13:55:41.683Z,102484.13
2023-01-28T13:58:36.169Z,102480.38
2023-01-28T14:01:37.869Z,102483.88
2023-01-28T14:04:38.705Z,102479.59
2023-01-28T14:07:49.712Z,102464.47
2023-01-28T14:10:33.305Z,102468.84
2023-01-28T14:13:11.236Z,102483.00
2023-01-28T14:15:54.774Z,102480.28
2023-01-28T14:18:25.666Z,102483.81
2023-01-28T14:20:54.602Z,102485.69
2023-01-28T14:23:22.922Z,102496.44
2023-01-28T14:26:01.552Z,102509.03
2023-01-28T14:28:39.817Z,102516.38
2023-01-28T14:31:11.400Z,102513.03
2023-01-28T14:33:41.278Z,102515.09
2023-01-28T14:36:11.102Z,102512.69
2023-01-28T14:38:41.278Z,102506.59
2023-01-28T14:41:09.272Z,102512.94
2023-01-28T14:43:37.960Z,102522.78
2023-01-28T14:46:16.894Z,102506.75
2023-01-28T14:48:51.157Z,102506.84
2023-01-28T14:51:44.528Z,102513.19
2023-01-28T14:54:28.271Z,102521.41
2023-01-28T14:57:03.723Z,102518.06
2023-01-28T14:59:37.723Z,102516.31
2023-01-28T15:02:17.853Z,102519.13
2023-01-28T15:04:46.842Z,102526.31
2023-01-28T15:07:19.613Z,102516.69
2023-01-28T15:09:46.859Z,102511.47
2023-01-28T15:12:15.690Z,102500.91
2023-01-28T15:14:44.413Z,102510.72
2023-01-28T15:17:23.555Z,102515.25
2023-01-28T15:19:52.795Z,102510.91
2023-01-28T15:22:21.535Z,102505.72
2023-01-28T15:24:48.351Z,102502.16
2023-01-28T15:27:18.234Z,102508.38
2023-01-28T15:29:52.532Z,102510.09
2023-01-28T15:32:24.234Z,102506.63
2023-01-28T15:34:52.323Z,102509.34
2023-01-28T15:37:20.390Z,102507.59
2023-01-28T15:39:47.373Z,102517.56
2023-01-28T15:42:19.986Z,102523.03
2023-01-28T15:44:48.106Z,102531.97
2023-01-28T15:47:17.817Z,102530.34
2023-01-28T15:49:48.520Z,102520.78
2023-01-28T15:52:16.831Z,102527.16
2023-01-28T15:54:47.027Z,102530.84
2023-01-28T15:57:18.689Z,102540.78
2023-01-28T15:59:45.827Z,102550.72
2023-01-28T16:02:21.076Z,102563.25
2023-01-28T16:04:57.728Z,102555.38
2023-01-28T16:07:26.881Z,102554.66
2023-01-28T16:09:55.030Z,102554.78
2023-01-28T16:12:22.745Z,102547.81
2023-01-28T16:14:52.168Z,102535.44
2023-01-28T16:17:22.136Z,102533.75
2023-01-28T16:19:50.946Z,102526.72
2023-01-28T16:22:20.631Z,102533.94
2023-01-28T16:24:53.481Z,102541.06
2023-01-28T16:27:21.949Z,102542.91
2023-01-28T16:29:48.784Z,102544.78
2023-01-28T16:32:28.281Z,102543.97
2023-01-28T16:34:54.981Z,102553.84
2023-01-28T16:37:21.661Z,102545.00
2023-01-28T16:39:48.957Z,102543.31
2023-01-28T16:42:17.159Z,102547.84
2023-01-28T16:44:44.061Z,102547.09
2023-01-28T16:47:11.023Z,102549.00
2023-01-28T16:49:37.871Z,102547.28
2023-01-28T16:52:06.238Z,102556.25
2023-01-28T16:54:34.002Z,102569.69
2023-01-28T16:57:00.814Z,102563.59
2023-01-28T16:59:28.901Z,102574.34
2023-01-28T17:01:55.506Z,102575.25
2023-01-28T17:04:22.106Z,102572.59
2023-01-28T17:06:48.737Z,102578.88
2023-01-28T17:09:15.510Z,102576.22
2023-01-28T17:11:42.306Z,102582.44
2023-01-28T17:14:09.361Z,102579.88
2023-01-28T17:16:37.721Z,102587.88
2023-01-28T17:19:04.608Z,102594.97
2023-01-28T17:21:31.308Z,102605.69
2023-01-28T17:23:59.520Z,102600.38
2023-01-28T17:26:26.761Z,102603.06
2023-01-28T17:28:53.888Z,102605.84
2023-01-28T17:31:21.541Z,102604.97
2023-01-28T17:33:53.502Z,102601.41
2023-01-28T17:36:20.212Z,102608.63
2023-01-28T17:38:46.912Z,102602.44
2023-01-28T17:41:13.639Z,102591.78
2023-01-28T17:43:40.548Z,102583.91
2023-01-28T17:46:11.457Z,102564.38
2023-01-28T17:48:38.227Z,102565.34
2023-01-28T17:51:06.422Z,102568.97
2023-01-28T17:53:33.083Z,102577.03
2023-01-28T17:55:59.832Z,102583.38
2023-01-28T17:58:27.893Z,102586.16
2023-01-28T18:00:55.901Z,102597.81
2023-01-28T18:03:22.525Z,102597.06
2023-01-28T18:05:56.900Z,102598.13
2023-01-28T18:08:25.045Z,102591.16
2023-01-28T18:10:51.665Z,102585.88
2023-01-28T18:13:18.261Z,102585.13
2023-01-28T18:15:44.883Z,102586.13
2023-01-28T18:18:11.557Z,102583.59
2023-01-28T18:20:38.185Z,102574.84
2023-01-28T18:23:04.868Z,102586.44
2023-01-28T18:25:33.003Z,102587.41
2023-01-28T18:27:59.699Z,102597.25
2023-01-28T18:30:26.320Z,102600.00
2023-01-28T18:32:52.978Z,102597.41
2023-01-28T18:35:19.629Z,102588.59
2023-01-28T18:37:46.279Z,102593.06
2023-01-28T18:40:13.230Z,102600.19
2023-01-28T18:42:41.292Z,102585.09
2023-01-28T18:45:08.641Z,102585.16
2023-01-28T18:47:35.297Z,102591.41
2023-01-28T18:50:02.630Z,102588.75
2023-01-28T18:52:29.226Z,102592.28
2023-01-28T18:54:55.798Z,102595.81
2023-01-28T18:57:22.470Z,102583.38
2023-01-28T18:59:50.448Z,102593.09
2023-01-28T19:02:17.336Z,102585.16
2023-01-28T19:04:44.029Z,102591.31
2023-01-28T19:07:11.901Z,102593.09
2023-01-28T19:09:38.968Z,102593.09
2023-01-28T19:12:05.868Z,102580.72
2023-01-28T19:14:32.752Z,102596.69
2023-01-28T19:17:00.733Z,102593.09
2023-01-28T19:19:27.683Z,102594.03
2023-01-28T19:21:54.479Z,102587.75
2023-01-28T19:24:21.315Z,102581.63
2023-01-28T19:26:48.136Z,102580.75
2023-01-28T19:29:15.951Z,102583.53
2023-01-28T19:31:43.357Z,102581.00
2023-01-28T19:34:11.774Z,102577.50
2023-01-28T19:36:38.468Z,102573.16
2023-01-28T19:39:08.028Z,102580.38
2023-01-28T19:41:36.115Z,102583.06
2023-01-28T19:44:03.669Z,102584.91
2023-01-28T19:46:30.865Z,102581.47
2023-01-28T19:48:57.734Z,102574.50
2023-01-28T19:51:25.719Z,102581.69
2023-01-28T19:53:54.337Z,102595.06
2023-01-28T19:56:23.107Z,102597.81
2023-01-28T19:58:49.831Z,102592.59
2023-01-28T20:01:19.178Z,102606.84
2023-01-28T20:03:49.066Z,102613.16
2023-01-28T20:06:16.729Z,102620.38
2023-01-28T20:08:45.316Z,102622.19
2023-01-28T20:11:14.632Z,102619.63
2023-01-28T20:13:43.753Z,102606.38
2023-01-28T20:16:14.512Z,102597.63
2023-01-28T20:18:41.249Z,102599.47
2023-01-28T20:21:07.904Z,102594.28
2023-01-28T20:23:34.575Z,102600.63
2023-01-28T20:26:02.549Z,102596.31
2023-01-28T20:28:29.307Z,102594.66
2023-01-28T20:30:56.081Z,102592.03
2023-01-28T20:33:23.158Z,102583.28
2023-01-28T20:35:49.829Z,102582.50
2023-01-28T20:38:16.448Z,102591.47
2023-01-28T20:40:43.142Z,102592.41
2023-01-28T20:43:11.372Z,102592.44
2023-01-28T20:45:38.211Z,102591.59
2023-01-28T20:48:05.564Z,102581.88
2023-01-28T20:50:32.318Z,102576.66
2023-01-28T20:52:58.973Z,102582.00
2023-01-28T20:55:25.618Z,102584.75
2023-01-28T20:57:52.583Z,102578.59
2023-01-28T21:00:23.095Z,102583.13
2023-01-28T21:02:49.712Z,102577.00
2023-01-28T21:05:16.482Z,102583.25
2023-01-28T21:07:43.146Z,102591.31
2023-01-28T21:10:11.175Z,102587.78
2023-01-28T21:12:37.909Z,102578.06
2023-01-28T21:15:05.520Z,102578.13
2023-01-28T21:17:33.522Z,102575.50
2023-01-28T21:20:00.146Z,102582.63
2023-01-28T21:22:26.769Z,102572.97
2023-01-28T21:24:53.647Z,102570.34
2023-01-28T21:27:20.639Z,102570.31
2023-01-28T21:29:47.286Z,102570.34
2023-01-28T21:32:13.952Z,102565.00
2023-01-28T21:34:42.055Z,102572.09
2023-01-28T21:37:08.748Z,102568.53
2023-01-28T21:39:35.319Z,102568.53
2023-01-28T21:42:02.017Z,102570.31
2023-01-28T21:44:28.679Z,102575.59
2023-01-28T21:46:55.310Z,102573.81
2023-01-28T21:49:21.932Z,102574.59
2023-01-28T21:51:49.995Z,102559.50
2023-01-28T21:54:18.215Z,102555.97
2023-01-28T21:56:45.639Z,102559.44
2023-01-28T21:59:13.027Z,102551.41
2023-01-28T22:01:39.735Z,102554.00
2023-01-28T22:04:06.448Z,102547.78
2023-01-28T22:06:33.171Z,102546.00
2023-01-28T22:09:01.205Z,102546.91
2023-01-28T22:11:27.832Z,102545.09
2023-01-28T22:13:54.617Z,102538.03
2023-01-28T22:16:21.492Z,102535.34
2023-01-28T22:18:48.180Z,102532.66
2023-01-28T22:21:15.808Z,102530.94
2023-01-28T22:23:42.602Z,102534.50
2023-01-28T22:26:10.622Z,102526.53
2023-01-28T22:28:37.283Z,102535.44
2023-01-28T22:31:08.464Z,102524.81
2023-01-28T22:33:35.585Z,102533.63
2023-01-28T22:36:05.885Z,102532.78
2023-01-28T22:38:32.522Z,102532.78
2023-01-28T22:41:04.519Z,102538.13
2023-01-28T22:43:32.654Z,102539.84
2023-01-28T22:45:59.630Z,102536.28
2023-01-28T22:48:26.419Z,102536.16
2023-01-28T22:50:53.257Z,102542.34
2023-01-28T22:53:20.181Z,102533.44
2023-01-28T22:55:50.851Z,102530.69
2023-01-28T22:58:17.449Z,102521.81
2023-01-28T23:00:45.711Z,102525.28
2023-01-28T23:03:12.396Z,102527.88
2023-01-28T23:05:39.041Z,102526.94
2023-01-28T23:08:06.134Z,102527.78
2023-01-28T23:10:34.020Z,102517.03
2023-01-28T23:13:00.744Z,102512.56
2023-01-28T23:15:27.437Z,102508.03
2023-01-28T23:17:55.466Z,102501.81
2023-01-28T23:20:22.108Z,102500.91
2023-01-28T23:22:48.723Z,102499.13
2023-01-28T23:25:15.801Z,102498.16
2023-01-28T23:27:42.954Z,102496.38
2023-01-28T23:30:11.286Z,102486.63
2023-01-28T23:32:40.055Z,102491.00
2023-01-28T23:35:09.762Z,102482.06
2023-01-28T23:37:36.429Z,102481.22
2023-01-28T23:40:03.415Z,102477.63
2023-01-28T23:42:30.275Z,102476.75
2023-01-28T23:44:56.876Z,102482.06
2023-01-28T23:47:23.875Z,102483.81
2023-01-28T23:49:50.509Z,102475.81
2023-01-28T23:52:18.577Z,102478.41
2023-01-28T23:54:45.417Z,102473.03
2023-01-28T23:57:12.075Z,102464.09
2023-01-28T23:59:38.702Z,102460.50
